createdAt,value
2022-10-11T00:02:16.945Z,99468.59
2022-10-11T00:04:43.694Z,99472.31
2022-10-11T00:07:10.682Z,99482.50
2022-10-11T00:09:37.607Z,99491.94
2022-10-11T00:12:04.517Z,99486.81
2022-10-11T00:14:31.306Z,99472.91
2022-10-11T00:16:57.977Z,99490.44
2022-10-11T00:19:24.662Z,99482.16
2022-10-11T00:21:51.322Z,99480.03
2022-10-11T00:24:18.163Z,99483.81
2022-10-11T00:26:46.965Z,99489.72
2022-10-11T00:29:14.160Z,99488.25
2022-10-11T00:31:40.954Z,99497.66
2022-10-11T00:34:08.128Z,99512.25
2022-10-11T00:36:34.902Z,99502.06
2022-10-11T00:39:01.965Z,99514.94
2022-10-11T00:41:28.636Z,99503.38
2022-10-11T00:44:22.056Z,99516.47
2022-10-11T00:47:12.628Z,99521.34
2022-10-11T00:49:42.273Z,99514.41
2022-10-11T00:52:15.634Z,99516.84
2022-10-11T00:54:45.783Z,99519.16
2022-10-11T00:57:16.773Z,99500.16
2022-10-11T00:59:46.739Z,99514.34
2022-10-11T01:02:13.801Z,99529.25
2022-10-11T01:04:41.309Z,99523.50
2022-10-11T01:07:09.375Z,99526.66
2022-10-11T01:09:36.074Z,99535.81
2022-10-11T01:12:06.120Z,99540.97
2022-10-11T01:14:41.940Z,99541.13
2022-10-11T01:17:47.603Z,99545.00
2022-10-11T01:20:27.443Z,99543.91
2022-10-11T01:23:12.586Z,99544.44
2022-10-11T01:26:08.722Z,99540.06
2022-10-11T01:28:43.761Z,99543.50
2022-10-11T01:31:31.712Z,99531.66
2022-10-11T01:34:04.385Z,99540.72
2022-10-11T01:36:45.224Z,99542.63
2022-10-11T01:39:20.237Z,99543.00
2022-10-11T01:41:51.239Z,99539.00
2022-10-11T01:44:18.700Z,99545.94
2022-10-11T01:46:45.354Z,99552.38
2022-10-11T01:49:12.073Z,99560.72
2022-10-11T01:51:49.622Z,99566.44
2022-10-11T01:54:19.052Z,99571.97
2022-10-11T01:57:04.233Z,99567.19
2022-10-11T01:59:33.907Z,99584.13
2022-10-11T02:02:06.393Z,99575.66
2022-10-11T02:04:43.239Z,99580.50
2022-10-11T02:07:17.256Z,99573.97
2022-10-11T02:10:03.584Z,99566.88
2022-10-11T02:12:52.470Z,99575.31
2022-10-11T02:15:21.309Z,99567.00
2022-10-11T02:17:56.694Z,99574.59
2022-10-11T02:20:26.330Z,99568.38
2022-10-11T02:23:05.873Z,99563.91
2022-10-11T02:25:36.157Z,99574.16
2022-10-11T02:28:09.411Z,99582.06
2022-10-11T02:30:37.423Z,99577.00
2022-10-11T02:33:07.774Z,99523.22
2022-10-11T02:35:42.172Z,99573.81
2022-10-11T02:38:30.152Z,99571.63
2022-10-11T02:41:06.922Z,99568.53
2022-10-11T02:43:39.656Z,99585.44
2022-10-11T02:46:08.475Z,99582.16
2022-10-11T02:48:36.613Z,99575.19
2022-10-11T02:51:05.017Z,99584.69
2022-10-11T02:53:33.635Z,99587.25
2022-10-11T02:56:00.321Z,99582.59
2022-10-11T02:58:27.182Z,99573.34
2022-10-11T03:00:53.923Z,99569.53
2022-10-11T03:03:20.612Z,99569.69
2022-10-11T03:05:47.333Z,99568.31
2022-10-11T03:08:15.802Z,99577.22
2022-10-11T03:10:43.013Z,99593.34
2022-10-11T03:13:09.684Z,99588.97
2022-10-11T03:15:36.397Z,99590.50
2022-10-11T03:18:03.181Z,99608.59
2022-10-11T03:20:29.873Z,99599.44
2022-10-11T03:22:56.725Z,99593.91
2022-10-11T03:25:23.400Z,99608.91
2022-10-11T03:27:50.678Z,99607.63
2022-10-11T03:30:18.479Z,99593.75
2022-10-11T03:32:45.606Z,99592.78
2022-10-11T03:35:12.501Z,99580.63
2022-10-11T03:37:39.181Z,99601.56
2022-10-11T03:40:08.432Z,99608.78
2022-10-11T03:42:36.174Z,99610.47
2022-10-11T03:45:05.162Z,99605.94
2022-10-11T03:47:32.642Z,99610.06
2022-10-11T03:49:59.295Z,99594.75
2022-10-11T03:52:26.118Z,99600.16
2022-10-11T03:54:52.979Z,99598.00
2022-10-11T03:57:19.790Z,99606.78
2022-10-11T03:59:46.736Z,99614.28
2022-10-11T04:02:13.514Z,99609.50
2022-10-11T04:04:40.366Z,99620.53
2022-10-11T04:07:07.260Z,99619.78
2022-10-11T04:09:34.021Z,99626.28
2022-10-11T04:12:00.954Z,99622.59
2022-10-11T04:14:27.634Z,99628.44
2022-10-11T04:16:56.433Z,99623.31
2022-10-11T04:19:26.397Z,99623.28
2022-10-11T04:21:53.158Z,99628.38
2022-10-11T04:24:19.877Z,99631.06
2022-10-11T04:26:46.540Z,99607.19
2022-10-11T04:29:13.269Z,99629.53
2022-10-11T04:31:40.073Z,99633.56
2022-10-11T04:34:06.972Z,99638.38
2022-10-11T04:36:34.152Z,99637.22
2022-10-11T04:39:01.765Z,99636.50
2022-10-11T04:41:29.511Z,99622.91
2022-10-11T04:43:56.265Z,99629.78
2022-10-11T04:46:23.973Z,99635.69
2022-10-11T04:48:51.955Z,99634.84
2022-10-11T04:51:19.959Z,99644.44
2022-10-11T04:53:48.053Z,99634.22
2022-10-11T04:56:17.010Z,99629.53
2022-10-11T04:58:44.063Z,99622.16
2022-10-11T05:01:11.671Z,99633.84
2022-10-11T05:03:38.472Z,99634.13
2022-10-11T05:06:06.307Z,99641.09
2022-10-11T05:08:33.953Z,99643.00
2022-10-11T05:11:04.251Z,99637.63
2022-10-11T05:13:31.657Z,99635.72
2022-10-11T05:15:58.366Z,99632.31
2022-10-11T05:18:25.445Z,99652.78
2022-10-11T05:21:00.336Z,99634.81
2022-10-11T05:23:28.518Z,99650.09
2022-10-11T05:25:55.225Z,99650.38
2022-10-11T05:28:21.958Z,99642.72
2022-10-11T05:30:48.829Z,99664.38
2022-10-11T05:33:15.916Z,99654.63
2022-10-11T05:35:42.924Z,99663.31
2022-10-11T05:38:10.452Z,99672.31
2022-10-11T05:40:38.140Z,99662.72
2022-10-11T05:43:05.460Z,99665.13
2022-10-11T05:45:35.215Z,99676.72
2022-10-11T05:48:01.874Z,99670.59
2022-10-11T05:50:28.579Z,99645.88
2022-10-11T05:52:55.952Z,99671.81
2022-10-11T05:55:22.672Z,99680.19
2022-10-11T05:57:52.893Z,99681.34
2022-10-11T06:00:19.682Z,99686.84
2022-10-11T06:02:46.372Z,99675.94
2022-10-11T06:05:13.403Z,99688.41
2022-10-11T06:07:40.177Z,99684.56
2022-10-11T06:10:07.312Z,99706.53
2022-10-11T06:12:34.438Z,99700.78
2022-10-11T06:15:01.097Z,99693.25
2022-10-11T06:17:27.982Z,99706.09
2022-10-11T06:19:54.645Z,99693.47
2022-10-11T06:22:21.576Z,99689.72
2022-10-11T06:24:48.312Z,99695.22
2022-10-11T06:27:15.082Z,99702.41
2022-10-11T06:29:41.766Z,99701.63
2022-10-11T06:32:08.502Z,99707.34
2022-10-11T06:34:35.182Z,99669.06
2022-10-11T06:37:01.922Z,99701.63
2022-10-11T06:39:28.892Z,99707.59
2022-10-11T06:41:55.535Z,99705.38
2022-10-11T06:44:22.242Z,99702.50
2022-10-11T06:46:48.976Z,99670.56
2022-10-11T06:49:19.317Z,99713.34
2022-10-11T06:51:49.035Z,99713.44
2022-10-11T06:54:15.754Z,99713.22
2022-10-11T06:56:42.475Z,99727.25
2022-10-11T06:59:09.335Z,99735.84
2022-10-11T07:01:36.201Z,99711.56
2022-10-11T07:04:03.236Z,99722.41
2022-10-11T07:06:31.436Z,99729.31
2022-10-11T07:09:00.407Z,99734.94
2022-10-11T07:11:28.572Z,99730.19
2022-10-11T07:14:05.849Z,99725.75
2022-10-11T07:16:32.591Z,99747.94
2022-10-11T07:19:01.291Z,99753.22
2022-10-11T07:21:30.043Z,99728.72
2022-10-11T07:23:56.742Z,99751.41
2022-10-11T07:26:23.742Z,99747.06
2022-10-11T07:28:50.498Z,99712.94
2022-10-11T07:31:20.677Z,99736.66
2022-10-11T07:33:47.623Z,99748.59
2022-10-11T07:36:16.533Z,99753.16
2022-10-11T07:38:45.037Z,99746.94
2022-10-11T07:41:12.431Z,99747.13
2022-10-11T07:43:39.444Z,99754.09
2022-10-11T07:46:07.315Z,99739.16
2022-10-11T07:48:35.941Z,99736.25
2022-10-11T07:51:14.592Z,99750.84
2022-10-11T07:53:55.891Z,99735.09
2022-10-11T07:56:28.053Z,99724.47
2022-10-11T07:59:00.440Z,99747.53
2022-10-11T08:01:28.334Z,99744.00
2022-10-11T08:03:57.014Z,99743.88
2022-10-11T08:06:29.339Z,99734.06
2022-10-11T08:08:57.103Z,99723.31
2022-10-11T08:11:27.605Z,99748.63
2022-10-11T08:13:54.910Z,99737.38
2022-10-11T08:16:21.942Z,99745.19
2022-10-11T08:18:48.941Z,99730.44
2022-10-11T08:21:18.916Z,99740.91
2022-10-11T08:23:45.985Z,99732.06
2022-10-11T08:26:12.801Z,99728.72
2022-10-11T08:28:39.577Z,99751.56
2022-10-11T08:31:07.092Z,99746.47
2022-10-11T08:33:33.762Z,99747.78
2022-10-11T08:36:05.818Z,99744.97
2022-10-11T08:38:34.205Z,99741.72
2022-10-11T08:41:01.589Z,99734.97
2022-10-11T08:43:50.060Z,99749.06
2022-10-11T08:46:21.412Z,99756.84
2022-10-11T08:48:49.976Z,99745.53
2022-10-11T08:51:25.666Z,99755.75
2022-10-11T08:54:06.382Z,99744.56
2022-10-11T08:56:37.851Z,99754.03
2022-10-11T08:59:07.194Z,99765.22
2022-10-11T09:01:34.244Z,99758.34
2022-10-11T09:04:01.069Z,99755.22
2022-10-11T09:06:52.371Z,99760.53
2022-10-11T09:09:31.223Z,99764.63
2022-10-11T09:12:07.112Z,99756.75
2022-10-11T09:14:49.007Z,99758.00
2022-10-11T09:17:28.182Z,99757.66
2022-10-11T09:20:29.080Z,99755.63
2022-10-11T09:23:14.432Z,99756.16
2022-10-11T09:25:56.381Z,99750.34
2022-10-11T09:29:11.294Z,99755.91
2022-10-11T09:31:38.064Z,99736.25
2022-10-11T09:34:14.310Z,99757.53
2022-10-11T09:37:00.788Z,99749.34
2022-10-11T09:39:32.863Z,99749.31
2022-10-11T09:42:09.072Z,99765.69
2022-10-11T09:44:57.525Z,99752.06
2022-10-11T09:47:28.562Z,99754.81
2022-10-11T09:50:01.832Z,99760.06
2022-10-11T09:52:28.581Z,99750.63
2022-10-11T09:54:58.316Z,99751.91
2022-10-11T09:57:29.161Z,99756.19
2022-10-11T10:00:20.416Z,99754.84
2022-10-11T10:02:49.020Z,99755.06
2022-10-11T10:05:27.012Z,99745.47
2022-10-11T10:08:10.891Z,99752.72
2022-10-11T10:11:06.910Z,99741.56
2022-10-11T10:13:42.771Z,99744.78
2022-10-11T10:16:19.760Z,99737.09
2022-10-11T10:19:07.593Z,99756.56
2022-10-11T10:21:37.890Z,99757.28
2022-10-11T10:24:37.344Z,99746.56
2022-10-11T10:27:16.955Z,99758.00
2022-10-11T10:29:45.006Z,99758.91
2022-10-11T10:32:26.284Z,99744.47
2022-10-11T10:35:08.446Z,99758.13
2022-10-11T10:37:44.096Z,99756.38
2022-10-11T10:40:25.959Z,99744.44
2022-10-11T10:42:52.920Z,99751.31
2022-10-11T10:45:26.362Z,99742.19
2022-10-11T10:48:27.444Z,99752.63
2022-10-11T10:51:10.423Z,99754.19
2022-10-11T10:54:05.474Z,99755.25
2022-10-11T10:56:39.862Z,99757.66
2022-10-11T10:59:27.921Z,99753.22
2022-10-11T11:02:15.947Z,99722.22
2022-10-11T11:05:04.782Z,99758.66
2022-10-11T11:07:52.167Z,99737.97
2022-10-11T11:10:23.695Z,99756.13
2022-10-11T11:13:09.242Z,99754.72
2022-10-11T11:15:46.852Z,99738.53
2022-10-11T11:18:26.042Z,99756.53
2022-10-11T11:21:27.834Z,99746.63
2022-10-11T11:24:16.363Z,99754.91
2022-10-11T11:26:46.110Z,99754.09
2022-10-11T11:29:23.625Z,99752.06
2022-10-11T11:32:02.428Z,99755.75
2022-10-11T11:34:38.062Z,99746.25
2022-10-11T11:37:14.081Z,99750.06
2022-10-11T11:39:49.241Z,99750.31
2022-10-11T11:42:18.305Z,99759.50
2022-10-11T11:44:49.746Z,99753.53
2022-10-11T11:47:20.864Z,99746.78
2022-10-11T11:50:22.583Z,99760.38
2022-10-11T11:53:16.613Z,99758.38
2022-10-11T11:55:52.745Z,99744.19
2022-10-11T11:58:43.914Z,99755.13
2022-10-11T12:01:13.615Z,99757.91
2022-10-11T12:03:42.992Z,99755.69
2022-10-11T12:06:12.457Z,99756.41
2022-10-11T12:08:42.612Z,99747.28
2022-10-11T12:11:21.715Z,99748.84
2022-10-11T12:13:51.034Z,99740.50
2022-10-11T12:16:18.239Z,99749.00
2022-10-11T12:18:59.102Z,99759.34
2022-10-11T12:21:38.532Z,99754.91
2022-10-11T12:24:20.370Z,99752.44
2022-10-11T12:26:49.561Z,99749.28
2022-10-11T12:29:20.755Z,99753.69
2022-10-11T12:32:11.427Z,99753.03
2022-10-11T12:37:18.936Z,99758.88
2022-10-11T12:39:54.867Z,99756.69
2022-10-11T12:42:30.113Z,99752.69
2022-10-11T12:45:15.082Z,99753.94
2022-10-11T12:48:09.648Z,99758.25
2022-10-11T12:51:03.090Z,99757.19
2022-10-11T12:53:37.953Z,99748.66
2022-10-11T12:56:26.032Z,99762.94
2022-10-11T12:59:02.986Z,99764.09
2022-10-11T13:01:51.482Z,99767.75
2022-10-11T13:04:22.344Z,99765.97
2022-10-11T13:06:56.891Z,99762.78
2022-10-11T13:09:30.371Z,99761.06
2022-10-11T13:12:04.477Z,99751.16
2022-10-11T13:14:37.002Z,99757.69
2022-10-11T13:17:04.054Z,99765.28
2022-10-11T13:19:33.046Z,99761.44
2022-10-11T13:22:03.937Z,99761.84
2022-10-11T13:24:39.946Z,99753.88
2022-10-11T13:27:08.136Z,99757.75
2022-10-11T13:29:37.991Z,99771.03
2022-10-11T13:32:13.487Z,99748.22
2022-10-11T13:34:42.001Z,99755.72
2022-10-11T13:37:16.420Z,99761.69
2022-10-11T13:39:43.451Z,99756.84
2022-10-11T13:42:14.048Z,99763.06
2022-10-11T13:44:42.272Z,99754.03
2022-10-11T13:47:18.449Z,99750.88
2022-10-11T13:49:48.326Z,99759.69
2022-10-11T13:52:17.837Z,99762.22
2022-10-11T13:54:53.733Z,99759.97
2022-10-11T13:57:22.860Z,99751.16
2022-10-11T13:59:49.864Z,99753.41
2022-10-11T14:02:21.989Z,99759.69
2022-10-11T14:04:49.183Z,99743.81
2022-10-11T14:07:38.602Z,99755.06
2022-10-11T14:10:06.474Z,99753.53
2022-10-11T14:12:37.116Z,99754.38
2022-10-11T14:15:06.252Z,99754.34
2022-10-11T14:17:39.586Z,99753.41
2022-10-11T14:20:15.569Z,99757.59
2022-10-11T14:22:42.841Z,99754.44
2022-10-11T14:25:09.642Z,99771.59
2022-10-11T14:27:36.806Z,99749.47
2022-10-11T14:30:24.603Z,99774.75
2022-10-11T14:32:55.552Z,99760.69
2022-10-11T14:35:25.442Z,99755.47
2022-10-11T14:37:52.322Z,99771.94
2022-10-11T14:40:24.642Z,99771.63
2022-10-11T14:42:54.222Z,99766.44
2022-10-11T14:45:22.751Z,99713.81
2022-10-11T14:47:52.133Z,99712.06
2022-10-11T14:51:11.165Z,99775.53
2022-10-11T14:53:52.053Z,99705.81
2022-10-11T14:56:21.635Z,99723.78
2022-10-11T14:58:50.262Z,99757.63
2022-10-11T15:01:29.279Z,99717.41
2022-10-11T15:03:57.187Z,99759.25
2022-10-11T15:06:44.656Z,99729.69
2022-10-11T15:09:17.688Z,99700.91
2022-10-11T15:11:57.190Z,99701.91
2022-10-11T15:14:58.577Z,99697.50
2022-10-11T15:17:31.892Z,99733.78
2022-10-11T15:20:08.258Z,99766.00
2022-10-11T15:22:35.848Z,99762.94
2022-10-11T15:25:05.343Z,99759.00
2022-10-11T15:27:32.097Z,99754.47
2022-10-11T15:29:58.849Z,99747.50
2022-10-11T15:32:25.530Z,99748.81
2022-10-11T15:34:52.457Z,99753.31
2022-10-11T15:37:19.174Z,99751.25
2022-10-11T15:39:45.835Z,99743.56
2022-10-11T15:42:18.313Z,99749.03
2022-10-11T15:44:46.055Z,99751.22
2022-10-11T15:47:13.052Z,99750.06
2022-10-11T15:49:42.919Z,99756.66
2022-10-11T15:52:09.455Z,99761.75
2022-10-11T15:54:36.377Z,99755.84
2022-10-11T15:57:06.197Z,99740.78
2022-10-11T15:59:32.758Z,99761.09
2022-10-11T16:01:59.524Z,99758.38
2022-10-11T16:04:26.282Z,99761.09
2022-10-11T16:06:53.120Z,99742.66
2022-10-11T16:09:20.361Z,99751.94
2022-10-11T16:11:47.055Z,99766.69
2022-10-11T16:14:13.796Z,99764.81
2022-10-11T16:16:40.510Z,99774.66
2022-10-11T16:19:07.215Z,99754.31
2022-10-11T16:21:34.244Z,99760.25
2022-10-11T16:24:01.045Z,99769.00
2022-10-11T16:26:27.735Z,99746.34
2022-10-11T16:28:56.861Z,99762.94
2022-10-11T16:31:23.625Z,99779.69
2022-10-11T16:33:52.937Z,99771.91
2022-10-11T16:36:32.086Z,99782.22
2022-10-11T16:39:00.448Z,99775.81
2022-10-11T16:41:27.316Z,99758.72
2022-10-11T16:43:55.266Z,99786.28
2022-10-11T16:46:25.599Z,99777.16
2022-10-11T16:48:55.883Z,99788.47
2022-10-11T16:51:24.305Z,99793.38
2022-10-11T16:53:52.621Z,99794.75
2022-10-11T16:56:20.710Z,99783.59
2022-10-11T16:58:47.619Z,99788.63
2022-10-11T17:01:14.393Z,99770.06
2022-10-11T17:03:41.158Z,99800.84
2022-10-11T17:06:08.813Z,99804.94
2022-10-11T17:08:35.871Z,99810.66
2022-10-11T17:11:03.405Z,99803.75
2022-10-11T17:13:31.026Z,99806.63
2022-10-11T17:15:57.905Z,99808.81
2022-10-11T17:18:24.911Z,99805.78
2022-10-11T17:21:00.015Z,99805.44
2022-10-11T17:23:26.768Z,99803.91
2022-10-11T17:25:53.647Z,99808.75
2022-10-11T17:28:20.559Z,99815.91
2022-10-11T17:30:55.277Z,99810.81
2022-10-11T17:33:23.077Z,99812.19
2022-10-11T17:35:50.289Z,99763.91
2022-10-11T17:38:20.134Z,99802.66
2022-10-11T17:43:18.755Z,99807.19
2022-10-11T17:45:55.704Z,99801.63
2022-10-11T17:48:22.594Z,99800.78
2022-10-11T17:50:50.752Z,99793.66
2022-10-11T17:53:23.943Z,99807.97
2022-10-11T17:55:50.878Z,99795.94
2022-10-11T17:58:18.594Z,99809.66
2022-10-11T18:00:45.811Z,99812.91
2022-10-11T18:03:12.610Z,99797.69
2022-10-11T18:05:40.836Z,99780.56
2022-10-11T18:08:08.273Z,99795.78
2022-10-11T18:10:37.686Z,99805.91
2022-10-11T18:13:06.881Z,99812.47
2022-10-11T18:15:35.350Z,99805.53
2022-10-11T18:18:05.349Z,99800.06
2022-10-11T18:20:32.535Z,99809.88
2022-10-11T18:23:00.285Z,99767.81
2022-10-11T18:25:27.058Z,99799.81
2022-10-11T18:27:54.673Z,99794.59
2022-10-11T18:30:21.960Z,99813.03
2022-10-11T18:35:24.457Z,99803.84
2022-10-11T18:37:56.389Z,99802.78
2022-10-11T18:40:26.264Z,99821.06
2022-10-11T18:42:53.466Z,99820.50
2022-10-11T18:45:20.231Z,99814.81
2022-10-11T18:47:49.833Z,99811.00
2022-10-11T18:50:19.206Z,99805.22
2022-10-11T18:52:48.998Z,99812.09
2022-10-11T18:55:16.502Z,99819.09
2022-10-11T18:57:43.748Z,99817.41
2022-10-11T19:00:37.442Z,99812.59
2022-10-11T19:02:59.362Z,99813.63
2022-10-11T19:05:28.027Z,99809.22
2022-10-11T19:07:55.359Z,99831.94
2022-10-11T19:10:22.760Z,99810.00
2022-10-11T19:12:50.067Z,99817.94
2022-10-11T19:15:17.392Z,99805.53
2022-10-11T19:17:44.384Z,99823.66
2022-10-11T19:20:12.932Z,99816.09
2022-10-11T19:22:40.148Z,99812.09
2022-10-11T19:25:07.364Z,99825.28
2022-10-11T19:27:34.434Z,99829.75
2022-10-11T19:30:01.542Z,99834.06
2022-10-11T19:32:29.444Z,99820.94
2022-10-11T19:34:56.986Z,99830.44
2022-10-11T19:37:24.502Z,99792.53
2022-10-11T19:39:52.142Z,99821.00
2022-10-11T19:42:19.392Z,99817.88
2022-10-11T19:44:46.829Z,99829.91
2022-10-11T19:47:13.772Z,99822.09
2022-10-11T19:49:40.813Z,99828.91
2022-10-11T19:52:10.079Z,99830.19
2022-10-11T19:54:37.087Z,99837.28
2022-10-11T19:57:05.090Z,99844.38
2022-10-11T19:59:32.646Z,99818.22
2022-10-11T20:02:00.116Z,99830.50
2022-10-11T20:04:50.964Z,99834.84
2022-10-11T20:07:14.500Z,99834.59
2022-10-11T20:09:46.836Z,99847.56
2022-10-11T20:12:13.852Z,99836.16
2022-10-11T20:14:40.798Z,99839.00
2022-10-11T20:17:08.659Z,99838.16
2022-10-11T20:19:35.753Z,99834.44
2022-10-11T20:22:02.954Z,99839.84
2022-10-11T20:24:33.525Z,99843.00
2022-10-11T20:27:03.305Z,99839.63
2022-10-11T20:29:30.176Z,99817.94
2022-10-11T20:31:59.141Z,99840.38
2022-10-11T20:34:27.482Z,99827.81
2022-10-11T20:36:54.750Z,99842.00
2022-10-11T20:39:22.262Z,99836.19
2022-10-11T20:41:48.971Z,99835.59
2022-10-11T20:44:17.964Z,99846.25
2022-10-11T20:46:45.001Z,99828.75
2022-10-11T20:49:12.114Z,99820.16
2022-10-11T20:51:41.591Z,99832.84
2022-10-11T20:54:08.642Z,99816.75
2022-10-11T20:56:36.917Z,99835.75
2022-10-11T20:59:05.236Z,99831.81
2022-10-11T21:01:35.274Z,99840.00
2022-10-11T21:04:02.338Z,99842.53
2022-10-11T21:06:30.536Z,99845.25
2022-10-11T21:08:59.141Z,99843.00
2022-10-11T21:11:27.367Z,99842.28
2022-10-11T21:13:58.396Z,99847.28
2022-10-11T21:16:26.180Z,99836.25
2022-10-11T21:18:54.676Z,99847.00
2022-10-11T21:21:23.567Z,99848.28
2022-10-11T21:23:53.934Z,99845.88
2022-10-11T21:26:20.867Z,99835.84
2022-10-11T21:28:48.004Z,99845.97
2022-10-11T21:31:17.148Z,99840.31
2022-10-11T21:33:44.899Z,99834.94
2022-10-11T21:36:17.251Z,99849.34
2022-10-11T21:38:44.631Z,99847.81
2022-10-11T21:41:15.697Z,99851.72
2022-10-11T21:43:42.402Z,99851.88
2022-10-11T21:46:19.817Z,99850.69
2022-10-11T21:48:47.043Z,99847.88
2022-10-11T21:51:29.822Z,99843.41
2022-10-11T21:53:59.625Z,99822.34
2022-10-11T21:56:27.631Z,99838.63
2022-10-11T21:58:54.842Z,99826.28
2022-10-11T22:01:22.603Z,99828.84
2022-10-11T22:48:50.514Z,99797.19
2022-10-11T22:51:17.551Z,99805.19
2022-10-11T22:53:44.454Z,99793.13
2022-10-11T22:56:11.624Z,99794.16
2022-10-11T22:58:38.574Z,99807.16
2022-10-11T23:03:33.372Z,99791.31
2022-10-11T23:06:00.146Z,99809.06
2022-10-11T23:08:26.865Z,99770.34
2022-10-11T23:10:53.777Z,99790.88
2022-10-11T23:13:21.216Z,99812.00
2022-10-11T23:15:48.024Z,99805.59
2022-10-11T23:18:17.734Z,99809.69
2022-10-11T23:20:44.483Z,99822.59
2022-10-11T23:23:11.221Z,99825.59
2022-10-11T23:25:37.966Z,99807.16
2022-10-11T23:28:04.951Z,99824.97
2022-10-11T23:30:31.806Z,99820.59
2022-10-11T23:32:58.479Z,99829.69
2022-10-11T23:35:25.568Z,99829.91
2022-10-11T23:37:55.256Z,99791.72
2022-10-11T23:40:21.989Z,99832.81
2022-10-11T23:42:48.696Z,99822.88
2022-10-11T23:45:15.734Z,99820.81
2022-10-11T23:47:42.471Z,99822.88
2022-10-11T23:50:09.304Z,99820.19
2022-10-11T23:52:36.208Z,99824.59
2022-10-11T23:55:02.985Z,99825.28
2022-10-11T23:57:29.748Z,99830.84
2022-10-11T23:59:56.459Z,99812.34
